Connexion

Connexion à votre compte

Identifiant
Mot de passe
Maintenir la connexion active sur ce site

Veuillez saisir l'adresse e-mail associée à votre compte d'utilisateur. Un code de vérification vous sera adressé. Lorsque vous le recevrez, vous pourrez choisir un nouveau mot de passe

Nous contacter

 Téléphone : +33 (0)4 79 54 41 81

Coordonnées détaillées et accès : cliquez ici

facebook 770688 960 720  logo instagram large

[source: ADDS]
METAR / TAF
LFLB 020830Z AUTO VRB02KT 9999 OVC064 03/01 Q1032 NOSIG =
TAF LFLB 020800Z 0209/0309 VRB02KT CAVOK PROB30 TEMPO 0300/0309 BKN030

SR / SS: 06:56 / 16:43 UTC (Lever/Coucher du soleil le 2023-02-02)
JSN Boot template designed by JoomlaShine.com